createdAt,value
2018-09-20T00:00:22.362Z,6.33
2018-09-20T00:02:49.553Z,6.10
2018-09-20T00:05:16.719Z,5.97
2018-09-20T00:07:43.899Z,6.10
2018-09-20T00:10:11.079Z,5.60
2018-09-20T00:12:38.280Z,5.90
2018-09-20T00:15:05.529Z,5.20
2018-09-20T00:17:32.731Z,6.00
2018-09-20T00:19:59.928Z,5.80
2018-09-20T00:22:27.057Z,5.93
2018-09-20T00:24:54.235Z,6.03
2018-09-20T00:27:21.356Z,5.70
2018-09-20T00:29:48.615Z,5.20
2018-09-20T00:32:15.882Z,5.17
2018-09-20T00:34:43.020Z,5.70
2018-09-20T00:37:10.156Z,5.73
2018-09-20T00:39:37.333Z,6.10
2018-09-20T00:42:04.481Z,5.70
2018-09-20T00:44:31.598Z,6.20
2018-09-20T00:46:58.824Z,5.83
2018-09-20T00:49:25.949Z,5.40
2018-09-20T00:51:53.082Z,5.90
2018-09-20T00:54:20.265Z,5.97
2018-09-20T00:56:47.429Z,5.07
2018-09-20T00:59:14.558Z,5.77
2018-09-20T01:01:41.777Z,5.57
2018-09-20T01:04:08.912Z,5.30
2018-09-20T01:06:36.044Z,5.70
2018-09-20T01:09:05.526Z,5.30
2018-09-20T01:11:32.777Z,5.80
2018-09-20T01:13:59.949Z,5.37
2018-09-20T01:16:27.112Z,5.50
2018-09-20T01:18:54.261Z,5.73
2018-09-20T01:21:21.370Z,5.50
2018-09-20T01:23:48.626Z,5.53
2018-09-20T01:26:15.740Z,5.40
2018-09-20T01:28:42.849Z,6.03
2018-09-20T01:31:10.025Z,6.13
2018-09-20T01:33:37.134Z,6.03
2018-09-20T01:36:04.285Z,6.27
2018-09-20T01:38:31.461Z,6.30
2018-09-20T01:40:58.568Z,6.13
2018-09-20T01:43:25.673Z,5.60
2018-09-20T01:45:52.845Z,8.73
2018-09-20T01:48:19.958Z,12.43
2018-09-20T01:50:47.084Z,20.90
2018-09-20T01:53:14.253Z,26.80
2018-09-20T01:55:41.377Z,29.47
2018-09-20T01:58:08.490Z,24.43
2018-09-20T02:00:35.753Z,18.70
2018-09-20T02:03:02.883Z,17.27
2018-09-20T02:05:30.017Z,16.77
2018-09-20T02:07:57.176Z,12.40
2018-09-20T02:10:24.294Z,12.53
2018-09-20T02:12:51.397Z,10.60
2018-09-20T02:15:18.645Z,11.97
2018-09-20T02:17:45.770Z,11.43
2018-09-20T02:20:12.955Z,11.30
2018-09-20T02:22:40.112Z,9.50
2018-09-20T02:25:07.246Z,8.43
2018-09-20T02:27:34.452Z,7.87
2018-09-20T02:30:01.685Z,7.87
2018-09-20T02:32:28.793Z,7.53
2018-09-20T02:34:55.997Z,7.67
2018-09-20T02:37:23.240Z,7.10
2018-09-20T02:39:50.436Z,7.70
2018-09-20T02:42:17.545Z,7.40
2018-09-20T02:44:44.729Z,6.73
2018-09-20T02:47:11.857Z,6.93
2018-09-20T02:49:38.956Z,6.80
2018-09-20T02:52:06.313Z,7.40
2018-09-20T02:54:33.428Z,7.43
2018-09-20T02:57:00.705Z,7.60
2018-09-20T02:59:27.886Z,7.50
2018-09-20T03:01:55.018Z,7.97
2018-09-20T03:04:22.142Z,7.60
2018-09-20T03:06:49.317Z,6.87
2018-09-20T03:09:16.456Z,7.03
2018-09-20T03:11:43.589Z,7.67
2018-09-20T03:14:10.782Z,7.40
2018-09-20T03:16:37.910Z,7.90
2018-09-20T03:19:05.289Z,8.13
2018-09-20T03:21:32.490Z,8.33
2018-09-20T03:23:59.645Z,8.30
2018-09-20T03:26:26.798Z,7.77
2018-09-20T03:28:54.093Z,6.67
2018-09-20T03:31:21.302Z,7.90
2018-09-20T03:33:48.392Z,6.57
2018-09-20T03:36:15.625Z,7.23
2018-09-20T03:38:42.779Z,7.53
2018-09-20T03:41:09.988Z,7.40
2018-09-20T03:43:37.129Z,8.03
2018-09-20T03:46:04.285Z,8.03
2018-09-20T03:48:31.445Z,7.63
2018-09-20T03:50:58.630Z,8.13
2018-09-20T03:53:25.827Z,7.80
2018-09-20T03:55:52.945Z,7.23
2018-09-20T03:58:20.122Z,7.33
2018-09-20T04:00:47.224Z,7.70
2018-09-20T04:03:14.347Z,7.40
2018-09-20T04:05:41.513Z,6.67
2018-09-20T04:08:08.662Z,7.23
2018-09-20T04:10:35.951Z,7.97
2018-09-20T04:13:03.140Z,8.30
2018-09-20T04:15:30.306Z,7.33
2018-09-20T04:17:57.421Z,8.07
2018-09-20T04:20:24.583Z,7.73
2018-09-20T04:22:51.686Z,7.53
2018-09-20T04:25:18.813Z,7.40
2018-09-20T04:27:46.044Z,8.20
2018-09-20T04:30:13.244Z,7.30
2018-09-20T04:32:40.387Z,7.37
2018-09-20T04:35:07.554Z,7.47
2018-09-20T04:37:34.662Z,8.13
2018-09-20T04:40:01.906Z,7.80
2018-09-20T04:42:29.070Z,9.00
2018-09-20T04:44:56.767Z,8.40
2018-09-20T04:47:23.882Z,9.77
2018-09-20T04:49:51.046Z,8.93
2018-09-20T04:52:18.214Z,9.23
2018-09-20T04:54:45.390Z,8.37
2018-09-20T04:57:12.632Z,9.30
2018-09-20T04:59:39.776Z,9.70
2018-09-20T05:02:06.937Z,9.03
2018-09-20T05:04:34.236Z,8.43
2018-09-20T05:07:01.395Z,9.07
2018-09-20T05:09:30.158Z,7.93
2018-09-20T05:11:57.495Z,8.90
2018-09-20T05:14:24.628Z,8.67
2018-09-20T05:16:51.736Z,9.23
2018-09-20T05:19:18.892Z,8.40
2018-09-20T05:21:46.062Z,8.80
2018-09-20T05:24:13.176Z,8.70
2018-09-20T05:26:40.364Z,7.97
2018-09-20T05:29:07.480Z,8.87
2018-09-20T05:31:34.669Z,8.70
2018-09-20T05:34:01.841Z,8.80
2018-09-20T05:36:28.962Z,9.20
2018-09-20T05:38:56.085Z,8.30
2018-09-20T05:41:23.926Z,8.43
2018-09-20T05:43:51.193Z,8.50
2018-09-20T05:46:18.317Z,8.50
2018-09-20T05:48:45.479Z,9.07
2018-09-20T05:51:12.629Z,8.37
2018-09-20T05:53:39.776Z,8.43
2018-09-20T05:56:07.028Z,8.87
2018-09-20T05:58:34.154Z,9.07
2018-09-20T06:01:01.278Z,9.53
2018-09-20T06:03:28.449Z,9.10
2018-09-20T06:05:55.609Z,9.37
2018-09-20T06:08:22.892Z,10.33
2018-09-20T06:10:50.229Z,10.03
2018-09-20T06:13:17.589Z,10.00
2018-09-20T06:15:44.754Z,9.30
2018-09-20T06:18:11.991Z,10.27
2018-09-20T06:20:39.153Z,10.30
2018-09-20T06:23:06.297Z,9.87
2018-09-20T06:25:33.525Z,9.77
2018-09-20T06:28:00.650Z,9.10
2018-09-20T06:30:27.797Z,9.70
2018-09-20T06:32:55.061Z,9.57
2018-09-20T06:38:30.854Z,9.33
2018-09-20T06:40:58.061Z,10.43
2018-09-20T06:43:25.157Z,10.17
2018-09-20T06:45:52.329Z,8.93
2018-09-20T06:48:19.448Z,9.63
2018-09-20T06:50:46.581Z,9.60
2018-09-20T06:53:13.749Z,9.30
2018-09-20T06:55:40.851Z,8.77
2018-09-20T06:58:08.031Z,9.70
2018-09-20T07:00:35.210Z,9.40
2018-09-20T07:03:02.756Z,9.77
2018-09-20T07:05:35.445Z,10.13
2018-09-20T07:08:02.659Z,9.30
2018-09-20T07:10:29.841Z,9.87
2018-09-20T07:12:57.181Z,10.50
2018-09-20T07:15:24.289Z,9.27
2018-09-20T07:17:51.765Z,9.10
2018-09-20T07:20:18.918Z,8.57
2018-09-20T07:22:46.112Z,8.53
2018-09-20T07:25:13.261Z,8.70
2018-09-20T07:27:40.444Z,8.50
2018-09-20T07:30:07.786Z,7.80
2018-09-20T07:32:34.912Z,8.27
2018-09-20T07:35:04.489Z,8.07
2018-09-20T07:37:31.689Z,8.57
2018-09-20T07:39:58.913Z,7.33
2018-09-20T07:42:26.071Z,7.40
2018-09-20T07:44:53.268Z,7.03
2018-09-20T07:47:21.045Z,7.40
2018-09-20T07:49:48.270Z,7.30
2018-09-20T07:52:15.393Z,6.70
2018-09-20T07:54:43.502Z,7.10
2018-09-20T07:57:11.000Z,6.63
2018-09-20T07:59:38.156Z,7.00
2018-09-20T08:02:05.481Z,7.33
2018-09-20T08:04:33.629Z,7.53
2018-09-20T08:07:00.795Z,7.00
2018-09-20T08:09:27.897Z,6.43
2018-09-20T08:11:55.216Z,6.10
2018-09-20T08:14:23.189Z,6.37
2018-09-20T08:16:50.548Z,6.10
2018-09-20T08:19:18.034Z,5.97
2018-09-20T08:21:45.274Z,6.40
2018-09-20T08:24:12.724Z,5.73
2018-09-20T08:26:40.317Z,5.53
2018-09-20T08:29:07.526Z,5.50
2018-09-20T08:31:35.122Z,5.13
2018-09-20T08:34:02.414Z,5.17
2018-09-20T08:36:29.906Z,4.97
2018-09-20T08:38:57.287Z,5.00
2018-09-20T08:41:24.477Z,4.20
2018-09-20T08:43:51.797Z,3.60
2018-09-20T08:46:19.001Z,4.03
2018-09-20T08:48:46.796Z,4.30
2018-09-20T08:51:14.316Z,4.10
2018-09-20T08:53:41.609Z,3.80
2018-09-20T08:56:13.748Z,3.87
2018-09-20T08:58:40.993Z,4.17
2018-09-20T09:01:08.140Z,4.10
2018-09-20T09:03:35.498Z,4.70
2018-09-20T09:06:02.876Z,4.10
2018-09-20T09:08:30.031Z,4.47
2018-09-20T09:10:57.635Z,5.00
2018-09-20T09:13:24.776Z,4.07
2018-09-20T09:15:52.588Z,4.60
2018-09-20T09:18:19.843Z,4.43
2018-09-20T09:20:47.022Z,4.30
2018-09-20T09:23:14.203Z,4.40
2018-09-20T09:25:41.449Z,4.33
2018-09-20T09:28:08.637Z,4.00
2018-09-20T09:30:35.861Z,4.07
2018-09-20T09:33:03.638Z,4.37
2018-09-20T09:35:30.820Z,3.80
2018-09-20T09:37:58.015Z,4.20
2018-09-20T09:40:25.204Z,3.80
2018-09-20T09:42:52.584Z,4.40
2018-09-20T09:45:19.828Z,3.67
2018-09-20T09:47:47.095Z,3.90
2018-09-20T09:50:14.356Z,3.80
2018-09-20T09:52:41.609Z,4.23
2018-09-20T09:55:08.822Z,3.87
2018-09-20T09:57:35.961Z,3.90
2018-09-20T10:00:04.786Z,3.33
2018-09-20T10:02:32.480Z,4.00
2018-09-20T10:04:59.704Z,4.40
2018-09-20T10:07:27.386Z,4.30
2018-09-20T10:09:55.320Z,3.60
2018-09-20T10:12:22.593Z,3.60
2018-09-20T10:14:49.915Z,4.13
2018-09-20T10:17:17.563Z,3.40
2018-09-20T10:19:46.164Z,3.77
2018-09-20T10:22:13.697Z,3.90
2018-09-20T10:24:41.223Z,3.80
2018-09-20T10:27:08.572Z,3.77
2018-09-20T10:29:35.721Z,4.13
2018-09-20T10:32:02.893Z,3.93
2018-09-20T10:34:30.046Z,4.07
2018-09-20T10:36:57.176Z,4.20
2018-09-20T10:39:24.378Z,4.17
2018-09-20T10:41:51.508Z,3.50
2018-09-20T10:44:18.700Z,3.80
2018-09-20T10:49:58.938Z,3.83
2018-09-20T10:52:26.290Z,3.87
2018-09-20T10:54:53.433Z,3.70
2018-09-20T10:57:20.569Z,3.53
2018-09-20T10:59:47.769Z,3.70
2018-09-20T11:02:14.937Z,4.10
2018-09-20T11:04:42.183Z,3.87
2018-09-20T11:07:09.372Z,3.70
2018-09-20T11:09:36.796Z,3.80
2018-09-20T11:12:04.026Z,3.40
2018-09-20T11:14:31.237Z,3.90
2018-09-20T11:16:58.400Z,4.50
2018-09-20T11:19:25.532Z,4.10
2018-09-20T11:21:52.761Z,4.30
2018-09-20T11:24:20.622Z,4.67
2018-09-20T11:26:48.018Z,4.13
2018-09-20T11:29:15.205Z,4.23
2018-09-20T11:31:42.341Z,4.27
2018-09-20T11:34:10.124Z,4.17
2018-09-20T11:36:37.823Z,4.33
2018-09-20T11:39:07.666Z,4.43
2018-09-20T11:41:35.231Z,4.20
2018-09-20T11:44:02.527Z,4.63
2018-09-20T11:46:29.765Z,4.23
2018-09-20T11:48:56.933Z,4.77
2018-09-20T11:51:24.216Z,4.40
2018-09-20T11:53:51.425Z,4.17
2018-09-20T11:56:18.614Z,4.63
2018-09-20T11:58:46.610Z,4.40
2018-09-20T12:01:13.857Z,5.07
2018-09-20T12:03:42.511Z,4.77
2018-09-20T12:06:09.785Z,4.47
2018-09-20T12:08:37.885Z,4.13
2018-09-20T12:11:06.346Z,4.63
2018-09-20T12:13:33.869Z,5.30
2018-09-20T12:16:01.085Z,5.13
2018-09-20T12:18:28.242Z,4.70
2018-09-20T12:20:56.068Z,4.90
2018-09-20T12:23:23.303Z,5.97
2018-09-20T12:25:50.999Z,5.70
2018-09-20T12:28:18.466Z,6.27
2018-09-20T12:30:45.674Z,7.10
2018-09-20T12:33:12.855Z,7.47
2018-09-20T12:35:40.105Z,4.90
2018-09-20T12:38:07.351Z,5.70
2018-09-20T12:40:34.529Z,25.03
2018-09-20T12:43:01.808Z,9.20
2018-09-20T12:45:28.889Z,4.60
2018-09-20T12:47:56.081Z,4.63
2018-09-20T12:50:23.301Z,5.03
2018-09-20T12:52:50.476Z,5.20
2018-09-20T12:55:17.680Z,9.17
2018-09-20T12:57:44.936Z,5.03
2018-09-20T13:00:12.080Z,4.73
2018-09-20T13:02:39.381Z,5.20
2018-09-20T13:05:06.719Z,5.67
2018-09-20T13:07:33.966Z,5.03
2018-09-20T13:10:01.146Z,5.27
2018-09-20T13:12:28.393Z,5.03
2018-09-20T13:14:55.563Z,4.50
2018-09-20T13:17:22.685Z,5.60
2018-09-20T13:19:49.996Z,6.10
2018-09-20T13:22:17.139Z,14.00
2018-09-20T13:24:44.323Z,6.13
2018-09-20T13:27:11.640Z,5.20
2018-09-20T13:29:38.817Z,4.80
2018-09-20T13:32:06.945Z,4.80
2018-09-20T13:34:34.249Z,5.40
2018-09-20T13:37:01.472Z,4.57
2018-09-20T13:39:28.721Z,4.20
2018-09-20T13:41:56.006Z,5.47
2018-09-20T13:44:23.478Z,5.27
2018-09-20T13:46:50.720Z,4.57
2018-09-20T13:49:17.993Z,4.80
2018-09-20T13:51:45.171Z,4.80
2018-09-20T13:54:12.334Z,4.83
2018-09-20T13:56:39.650Z,4.77
2018-09-20T13:59:06.861Z,4.57
2018-09-20T14:01:34.032Z,7.77
2018-09-20T14:04:01.251Z,6.07
2018-09-20T14:06:28.398Z,6.77
2018-09-20T14:08:55.647Z,4.90
2018-09-20T14:11:22.969Z,5.03
2018-09-20T14:13:50.157Z,4.40
2018-09-20T14:16:17.315Z,4.93
2018-09-20T14:18:44.489Z,4.63
2018-09-20T14:21:11.702Z,5.57
2018-09-20T14:23:38.876Z,4.70
2018-09-20T14:26:06.295Z,4.40
2018-09-20T14:28:33.424Z,5.10
2018-09-20T14:31:00.566Z,4.70
2018-09-20T14:33:27.813Z,4.70
2018-09-20T14:35:54.925Z,4.53
2018-09-20T14:38:22.050Z,4.80
2018-09-20T14:40:49.217Z,5.40
2018-09-20T14:43:16.356Z,5.07
2018-09-20T14:45:43.477Z,6.07
2018-09-20T14:48:10.673Z,4.47
2018-09-20T14:50:37.796Z,5.07
2018-09-20T14:53:04.951Z,4.50
2018-09-20T14:55:32.133Z,4.73
2018-09-20T14:57:59.270Z,4.80
2018-09-20T15:00:26.709Z,4.30
2018-09-20T15:02:53.891Z,4.97
2018-09-20T15:05:21.016Z,4.40
2018-09-20T15:07:48.141Z,5.23
2018-09-20T15:10:15.310Z,5.40
2018-09-20T15:12:43.306Z,4.60
2018-09-20T15:15:10.517Z,4.20
2018-09-20T15:17:37.639Z,4.40
2018-09-20T15:20:04.772Z,4.03
2018-09-20T15:22:31.901Z,3.93
2018-09-20T15:24:59.090Z,4.50
2018-09-20T15:27:26.225Z,3.83
2018-09-20T15:29:53.349Z,4.13
2018-09-20T15:32:20.536Z,4.60
2018-09-20T15:34:47.757Z,4.70
2018-09-20T15:37:14.916Z,4.10
2018-09-20T15:39:42.127Z,4.73
2018-09-20T15:42:09.369Z,5.00
2018-09-20T15:44:36.536Z,4.47
2018-09-20T15:47:03.880Z,4.80
2018-09-20T15:49:31.029Z,4.60
2018-09-20T15:51:58.502Z,4.57
2018-09-20T15:54:25.852Z,4.40
2018-09-20T15:56:53.045Z,4.53
2018-09-20T15:59:20.505Z,4.53
2018-09-20T16:01:47.759Z,4.60
2018-09-20T16:04:14.997Z,4.53
2018-09-20T16:06:42.293Z,5.00
2018-09-20T16:09:10.874Z,4.20
2018-09-20T16:11:38.049Z,4.63
2018-09-20T16:14:05.409Z,4.57
2018-09-20T16:16:32.792Z,4.20
2018-09-20T16:19:00.009Z,4.43
2018-09-20T16:21:27.163Z,4.60
2018-09-20T16:23:54.360Z,4.20
2018-09-20T16:26:21.512Z,4.00
2018-09-20T16:28:59.651Z,4.00
2018-09-20T16:33:44.830Z,4.30
2018-09-20T16:36:18.845Z,4.90
2018-09-20T16:38:52.004Z,4.10
2018-09-20T16:41:23.350Z,4.73
2018-09-20T16:43:50.516Z,4.30
2018-09-20T16:46:17.661Z,4.07
2018-09-20T16:48:44.990Z,3.97
2018-09-20T16:51:12.140Z,4.60
2018-09-20T16:53:39.293Z,4.73
2018-09-20T16:56:06.759Z,4.63
2018-09-20T16:58:33.901Z,4.77
2018-09-20T17:01:01.045Z,4.50
2018-09-20T17:03:28.217Z,4.50
2018-09-20T17:05:55.365Z,4.30
2018-09-20T17:08:22.500Z,4.60
2018-09-20T17:10:49.702Z,4.37
2018-09-20T17:13:17.602Z,4.70
2018-09-20T17:15:44.690Z,4.33
2018-09-20T17:18:11.865Z,4.53
2018-09-20T17:20:39.165Z,4.30
2018-09-20T17:23:06.297Z,4.60
2018-09-20T17:25:33.620Z,4.60
2018-09-20T17:28:00.705Z,4.60
2018-09-20T17:30:28.457Z,4.50
2018-09-20T17:32:55.663Z,4.60
2018-09-20T17:35:23.213Z,4.70
2018-09-20T17:37:51.046Z,4.73
2018-09-20T17:40:19.319Z,4.43
2018-09-20T17:42:47.740Z,4.77
2018-09-20T17:45:14.873Z,4.70
2018-09-20T17:47:42.082Z,4.57
2018-09-20T17:50:09.230Z,4.93
2018-09-20T17:52:36.726Z,4.83
2018-09-20T17:55:05.145Z,4.40
2018-09-20T17:57:33.542Z,5.20
2018-09-20T18:00:00.746Z,5.17
2018-09-20T18:02:27.945Z,5.93
2018-09-20T18:04:55.137Z,6.00
2018-09-20T18:07:22.305Z,6.37
2018-09-20T18:09:49.521Z,6.53
2018-09-20T18:12:16.756Z,7.23
2018-09-20T18:14:43.901Z,6.70
2018-09-20T18:17:11.346Z,6.83
2018-09-20T18:19:38.614Z,6.90
2018-09-20T18:22:05.785Z,7.07
2018-09-20T18:24:33.128Z,7.33
2018-09-20T18:27:00.254Z,6.77
2018-09-20T18:29:27.485Z,6.60
2018-09-20T18:31:54.932Z,6.47
2018-09-20T18:34:22.169Z,6.37
2018-09-20T18:36:49.368Z,6.40
2018-09-20T18:39:16.617Z,7.27
2018-09-20T18:41:44.993Z,6.90
2018-09-20T18:44:12.246Z,7.30
2018-09-20T18:46:39.450Z,7.03
2018-09-20T18:49:07.016Z,7.23
2018-09-20T18:51:34.814Z,7.47
2018-09-20T18:54:02.081Z,7.07
2018-09-20T18:56:29.391Z,7.33
2018-09-20T18:58:56.540Z,8.10
2018-09-20T19:01:23.875Z,7.30
2018-09-20T19:03:51.213Z,7.33
2018-09-20T19:06:18.482Z,8.00
2018-09-20T19:08:45.662Z,8.40
2018-09-20T19:11:12.869Z,7.93
2018-09-20T19:13:40.034Z,8.00
2018-09-20T19:16:07.209Z,7.93
2018-09-20T19:18:34.331Z,8.47
2018-09-20T19:21:01.637Z,9.03
2018-09-20T19:23:28.845Z,8.30
2018-09-20T19:25:55.957Z,8.93
2018-09-20T19:28:23.137Z,9.47
2018-09-20T19:30:50.313Z,9.27
2018-09-20T19:33:17.582Z,9.63
2018-09-20T19:35:44.711Z,8.83
2018-09-20T19:38:11.901Z,9.40
2018-09-20T19:40:39.741Z,8.87
2018-09-20T19:43:06.910Z,9.17
2018-09-20T19:45:34.110Z,9.00
2018-09-20T19:48:01.260Z,8.87
2018-09-20T19:50:28.417Z,9.20
2018-09-20T19:52:55.701Z,9.03
2018-09-20T19:55:22.854Z,9.33
2018-09-20T19:57:50.021Z,8.80
2018-09-20T20:00:17.232Z,8.60
2018-09-20T20:02:44.405Z,8.53
2018-09-20T20:05:11.652Z,9.03
2018-09-20T20:07:38.884Z,8.83
2018-09-20T20:10:06.090Z,9.53
2018-09-20T20:12:33.266Z,8.17
2018-09-20T20:15:00.473Z,8.20
2018-09-20T20:17:28.479Z,8.43
2018-09-20T20:19:55.668Z,9.43
2018-09-20T20:22:22.908Z,9.60
2018-09-20T20:24:50.062Z,10.10
2018-09-20T20:27:17.210Z,9.13
2018-09-20T20:29:44.397Z,9.07
2018-09-20T20:32:11.596Z,9.07
2018-09-20T20:34:38.778Z,9.40
2018-09-20T20:37:06.153Z,9.47
2018-09-20T20:39:33.298Z,8.97
2018-09-20T20:42:00.504Z,9.27
2018-09-20T20:44:27.877Z,9.13
2018-09-20T20:46:55.097Z,9.37
2018-09-20T20:49:22.274Z,9.27
2018-09-20T20:51:49.582Z,9.67
2018-09-20T20:54:16.741Z,10.33
2018-09-20T20:56:43.938Z,9.63
2018-09-20T20:59:11.163Z,10.30
2018-09-20T21:01:38.311Z,10.77
2018-09-20T21:04:05.467Z,10.30
2018-09-20T21:06:32.789Z,11.07
2018-09-20T21:09:00.006Z,10.67
2018-09-20T21:11:27.118Z,10.27
2018-09-20T21:13:54.322Z,10.20
2018-09-20T21:16:21.474Z,11.13
2018-09-20T21:18:48.686Z,10.03
2018-09-20T21:21:15.906Z,10.70
2018-09-20T21:23:43.709Z,10.30
2018-09-20T21:26:10.866Z,11.40
2018-09-20T21:28:38.053Z,11.07
2018-09-20T21:31:05.537Z,10.93
2018-09-20T21:33:32.683Z,10.20
2018-09-20T21:35:59.862Z,10.97
2018-09-20T21:38:27.048Z,10.87
2018-09-20T21:40:54.296Z,9.93
2018-09-20T21:43:21.524Z,10.97
2018-09-20T21:45:49.081Z,11.17
2018-09-20T21:48:16.318Z,10.23
2018-09-20T21:50:43.593Z,10.80
2018-09-20T21:53:10.761Z,10.80
2018-09-20T21:55:37.922Z,10.67
2018-09-20T21:58:05.126Z,10.63
2018-09-20T22:00:32.278Z,10.40
2018-09-20T22:03:02.570Z,10.57
2018-09-20T22:05:30.485Z,11.07
2018-09-20T22:07:57.711Z,10.77
2018-09-20T22:10:24.853Z,10.53
2018-09-20T22:12:52.053Z,11.10
2018-09-20T22:15:28.401Z,11.47
2018-09-20T22:17:56.270Z,11.10
2018-09-20T22:20:26.549Z,11.60
2018-09-20T22:22:53.741Z,12.13
2018-09-20T22:25:20.989Z,11.40
2018-09-20T22:27:48.208Z,12.30
2018-09-20T22:30:15.602Z,10.57
2018-09-20T22:32:42.927Z,10.90
2018-09-20T22:35:10.106Z,11.60
2018-09-20T22:37:37.258Z,10.27
2018-09-20T22:40:04.606Z,10.90
2018-09-20T22:42:31.833Z,11.00
2018-09-20T22:44:59.170Z,10.33
2018-09-20T22:47:26.359Z,10.87
2018-09-20T22:49:53.586Z,10.73
2018-09-20T22:52:20.781Z,10.27
2018-09-20T22:54:47.973Z,11.23
2018-09-20T22:57:15.157Z,10.67
2018-09-20T22:59:42.701Z,11.27
2018-09-20T23:02:09.951Z,11.00
2018-09-20T23:04:37.137Z,10.93
2018-09-20T23:07:04.366Z,10.43
2018-09-20T23:09:31.603Z,10.50
2018-09-20T23:11:58.842Z,10.50
2018-09-20T23:14:26.035Z,10.50
2018-09-20T23:16:53.745Z,10.77
2018-09-20T23:19:20.946Z,11.00
2018-09-20T23:21:48.118Z,10.30
2018-09-20T23:24:15.442Z,10.23
2018-09-20T23:26:42.669Z,9.60
2018-09-20T23:29:09.840Z,9.83
2018-09-20T23:31:37.033Z,10.03
2018-09-20T23:34:04.237Z,10.03
2018-09-20T23:36:31.587Z,10.00
2018-09-20T23:38:58.811Z,9.60
2018-09-20T23:41:26.012Z,10.40
2018-09-20T23:43:53.186Z,9.90
2018-09-20T23:46:20.537Z,9.60
2018-09-20T23:48:47.702Z,9.87
2018-09-20T23:51:14.965Z,9.23
2018-09-20T23:53:42.282Z,10.30
2018-09-20T23:56:09.484Z,10.27
2018-09-20T23:58:36.820Z,9.73
